sensor_id;sensor_type;location;lat;lon;timestamp;P1;durP1;ratioP1;P2;durP2;ratioP2
18752;SDS011;9505;50.882;5.350;2022-09-24T00:00:47;41.42;;;15.10;;
18752;SDS011;9505;50.882;5.350;2022-09-24T00:03:18;38.33;;;15.10;;
18752;SDS011;9505;50.882;5.350;2022-09-24T00:05:44;34.10;;;14.13;;
18752;SDS011;9505;50.882;5.350;2022-09-24T00:08:11;32.13;;;14.15;;
18752;SDS011;9505;50.882;5.350;2022-09-24T00:10:39;31.25;;;13.73;;
18752;SDS011;9505;50.882;5.350;2022-09-24T00:13:06;28.45;;;13.43;;
18752;SDS011;9505;50.882;5.350;2022-09-24T00:15:46;40.15;;;15.20;;
18752;SDS011;9505;50.882;5.350;2022-09-24T00:18:13;38.00;;;15.80;;
18752;SDS011;9505;50.882;5.350;2022-09-24T00:20:40;39.65;;;16.10;;
18752;SDS011;9505;50.882;5.350;2022-09-24T00:23:06;43.35;;;15.90;;
18752;SDS011;9505;50.882;5.350;2022-09-24T00:25:38;40.65;;;15.00;;
18752;SDS011;9505;50.882;5.350;2022-09-24T00:28:29;32.17;;;14.10;;
18752;SDS011;9505;50.882;5.350;2022-09-24T00:30:56;30.23;;;13.50;;
18752;SDS011;9505;50.882;5.350;2022-09-24T00:33:26;33.28;;;14.20;;
18752;SDS011;9505;50.882;5.350;2022-09-24T00:35:52;35.30;;;14.35;;
18752;SDS011;9505;50.882;5.350;2022-09-24T00:38:25;32.28;;;14.27;;
18752;SDS011;9505;50.882;5.350;2022-09-24T00:40:51;29.60;;;13.90;;
18752;SDS011;9505;50.882;5.350;2022-09-24T00:43:20;35.33;;;15.40;;
18752;SDS011;9505;50.882;5.350;2022-09-24T00:45:55;34.30;;;14.40;;
18752;SDS011;9505;50.882;5.350;2022-09-24T00:48:35;33.78;;;14.15;;
18752;SDS011;9505;50.882;5.350;2022-09-24T00:51:02;45.17;;;15.75;;
18752;SDS011;9505;50.882;5.350;2022-09-24T00:53:29;30.05;;;14.02;;
18752;SDS011;9505;50.882;5.350;2022-09-24T00:55:57;42.92;;;16.00;;
18752;SDS011;9505;50.882;5.350;2022-09-24T00:58:24;40.35;;;14.57;;
18752;SDS011;9505;50.882;5.350;2022-09-24T01:00:53;35.58;;;14.80;;
18752;SDS011;9505;50.882;5.350;2022-09-24T01:03:27;42.33;;;16.27;;
18752;SDS011;9505;50.882;5.350;2022-09-24T01:05:55;37.20;;;15.13;;
18752;SDS011;9505;50.882;5.350;2022-09-24T01:08:20;32.17;;;13.93;;
18752;SDS011;9505;50.882;5.350;2022-09-24T01:18:40;45.38;;;15.27;;
18752;SDS011;9505;50.882;5.350;2022-09-24T01:21:15;41.10;;;15.38;;
18752;SDS011;9505;50.882;5.350;2022-09-24T01:23:54;40.40;;;15.38;;
18752;SDS011;9505;50.882;5.350;2022-09-24T01:34:51;31.33;;;12.98;;
18752;SDS011;9505;50.882;5.350;2022-09-24T01:37:24;31.80;;;13.68;;
18752;SDS011;9505;50.882;5.350;2022-09-24T01:39:53;37.80;;;14.15;;
18752;SDS011;9505;50.882;5.350;2022-09-24T01:42:20;39.42;;;15.30;;
18752;SDS011;9505;50.882;5.350;2022-09-24T01:44:47;37.85;;;15.55;;
18752;SDS011;9505;50.882;5.350;2022-09-24T01:47:34;36.30;;;14.40;;
18752;SDS011;9505;50.882;5.350;2022-09-24T01:50:03;35.65;;;14.55;;
18752;SDS011;9505;50.882;5.350;2022-09-24T01:52:33;37.80;;;13.88;;
18752;SDS011;9505;50.882;5.350;2022-09-24T01:55:04;35.20;;;13.95;;
18752;SDS011;9505;50.882;5.350;2022-09-24T01:57:35;33.42;;;14.77;;
18752;SDS011;9505;50.882;5.350;2022-09-24T02:00:19;30.30;;;13.52;;
18752;SDS011;9505;50.882;5.350;2022-09-24T02:05:36;33.78;;;14.55;;
18752;SDS011;9505;50.882;5.350;2022-09-24T02:08:11;37.50;;;14.18;;
18752;SDS011;9505;50.882;5.350;2022-09-24T02:10:47;43.15;;;16.13;;
18752;SDS011;9505;50.882;5.350;2022-09-24T02:13:18;35.80;;;14.85;;
18752;SDS011;9505;50.882;5.350;2022-09-24T02:15:49;35.17;;;14.85;;
18752;SDS011;9505;50.882;5.350;2022-09-24T02:18:18;38.28;;;15.75;;
18752;SDS011;9505;50.882;5.350;2022-09-24T02:20:50;34.75;;;14.43;;
18752;SDS011;9505;50.882;5.350;2022-09-24T02:23:17;40.80;;;15.38;;
18752;SDS011;9505;50.882;5.350;2022-09-24T02:26:02;46.58;;;16.73;;
18752;SDS011;9505;50.882;5.350;2022-09-24T02:28:29;50.40;;;18.33;;
18752;SDS011;9505;50.882;5.350;2022-09-24T02:31:04;35.90;;;14.57;;
18752;SDS011;9505;50.882;5.350;2022-09-24T02:33:41;47.38;;;16.48;;
18752;SDS011;9505;50.882;5.350;2022-09-24T02:36:29;38.92;;;16.10;;
18752;SDS011;9505;50.882;5.350;2022-09-24T02:38:55;42.63;;;16.85;;
18752;SDS011;9505;50.882;5.350;2022-09-24T02:41:23;35.22;;;15.20;;
18752;SDS011;9505;50.882;5.350;2022-09-24T02:43:51;39.78;;;16.95;;
18752;SDS011;9505;50.882;5.350;2022-09-24T02:46:17;41.60;;;16.40;;
18752;SDS011;9505;50.882;5.350;2022-09-24T02:48:43;38.85;;;15.85;;
18752;SDS011;9505;50.882;5.350;2022-09-24T02:51:10;42.95;;;16.15;;
18752;SDS011;9505;50.882;5.350;2022-09-24T02:53:35;42.20;;;16.95;;
18752;SDS011;9505;50.882;5.350;2022-09-24T02:56:01;50.60;;;16.55;;
18752;SDS011;9505;50.882;5.350;2022-09-24T02:58:27;44.88;;;16.67;;
18752;SDS011;9505;50.882;5.350;2022-09-24T03:00:57;42.35;;;16.40;;
18752;SDS011;9505;50.882;5.350;2022-09-24T03:03:23;40.55;;;16.27;;
18752;SDS011;9505;50.882;5.350;2022-09-24T03:05:49;42.20;;;15.98;;
18752;SDS011;9505;50.882;5.350;2022-09-24T03:08:26;43.45;;;16.90;;
18752;SDS011;9505;50.882;5.350;2022-09-24T03:10:52;44.95;;;18.15;;
18752;SDS011;9505;50.882;5.350;2022-09-24T03:15:48;52.00;;;18.73;;
18752;SDS011;9505;50.882;5.350;2022-09-24T03:18:15;53.13;;;18.67;;
18752;SDS011;9505;50.882;5.350;2022-09-24T03:21:02;43.65;;;17.95;;
18752;SDS011;9505;50.882;5.350;2022-09-24T03:23:31;41.97;;;16.70;;
18752;SDS011;9505;50.882;5.350;2022-09-24T03:25:57;45.20;;;16.98;;
18752;SDS011;9505;50.882;5.350;2022-09-24T03:28:23;46.55;;;17.77;;
18752;SDS011;9505;50.882;5.350;2022-09-24T03:30:49;37.53;;;16.02;;
18752;SDS011;9505;50.882;5.350;2022-09-24T03:33:43;48.50;;;18.55;;
18752;SDS011;9505;50.882;5.350;2022-09-24T03:36:15;42.88;;;18.13;;
18752;SDS011;9505;50.882;5.350;2022-09-24T03:38:48;44.45;;;18.63;;
18752;SDS011;9505;50.882;5.350;2022-09-24T03:41:18;43.78;;;18.60;;
18752;SDS011;9505;50.882;5.350;2022-09-24T03:43:45;50.72;;;20.08;;
18752;SDS011;9505;50.882;5.350;2022-09-24T03:46:13;50.22;;;19.48;;
18752;SDS011;9505;50.882;5.350;2022-09-24T03:48:43;38.22;;;17.13;;
18752;SDS011;9505;50.882;5.350;2022-09-24T03:51:12;53.25;;;19.95;;
18752;SDS011;9505;50.882;5.350;2022-09-24T03:53:45;56.55;;;19.77;;
18752;SDS011;9505;50.882;5.350;2022-09-24T03:56:17;47.63;;;19.58;;
18752;SDS011;9505;50.882;5.350;2022-09-24T03:58:44;61.50;;;19.75;;
18752;SDS011;9505;50.882;5.350;2022-09-24T04:01:12;47.63;;;19.58;;
18752;SDS011;9505;50.882;5.350;2022-09-24T04:03:41;49.08;;;19.48;;
18752;SDS011;9505;50.882;5.350;2022-09-24T04:06:07;51.65;;;20.92;;
18752;SDS011;9505;50.882;5.350;2022-09-24T04:08:33;54.00;;;19.80;;
18752;SDS011;9505;50.882;5.350;2022-09-24T04:10:58;52.22;;;20.30;;
18752;SDS011;9505;50.882;5.350;2022-09-24T04:13:24;52.63;;;19.52;;
18752;SDS011;9505;50.882;5.350;2022-09-24T04:15:51;47.67;;;18.23;;
18752;SDS011;9505;50.882;5.350;2022-09-24T04:18:20;46.13;;;19.08;;
18752;SDS011;9505;50.882;5.350;2022-09-24T04:20:46;51.47;;;19.00;;
18752;SDS011;9505;50.882;5.350;2022-09-24T04:23:12;44.22;;;18.30;;
18752;SDS011;9505;50.882;5.350;2022-09-24T04:25:38;47.65;;;17.63;;
18752;SDS011;9505;50.882;5.350;2022-09-24T04:28:06;44.75;;;17.40;;
18752;SDS011;9505;50.882;5.350;2022-09-24T04:30:32;43.75;;;17.48;;
18752;SDS011;9505;50.882;5.350;2022-09-24T04:32:59;43.25;;;19.02;;
18752;SDS011;9505;50.882;5.350;2022-09-24T04:35:28;49.67;;;19.58;;
18752;SDS011;9505;50.882;5.350;2022-09-24T04:38:02;49.75;;;19.42;;
18752;SDS011;9505;50.882;5.350;2022-09-24T04:40:31;45.78;;;19.52;;
18752;SDS011;9505;50.882;5.350;2022-09-24T04:42:57;47.38;;;19.95;;
18752;SDS011;9505;50.882;5.350;2022-09-24T04:45:24;44.38;;;17.13;;
18752;SDS011;9505;50.882;5.350;2022-09-24T04:47:51;51.80;;;19.38;;
18752;SDS011;9505;50.882;5.350;2022-09-24T04:50:27;63.10;;;21.20;;
18752;SDS011;9505;50.882;5.350;2022-09-24T04:53:00;46.40;;;18.27;;
18752;SDS011;9505;50.882;5.350;2022-09-24T04:55:26;47.78;;;19.83;;
18752;SDS011;9505;50.882;5.350;2022-09-24T04:57:56;53.35;;;20.45;;
18752;SDS011;9505;50.882;5.350;2022-09-24T05:00:25;55.95;;;21.38;;
18752;SDS011;9505;50.882;5.350;2022-09-24T05:02:58;60.65;;;21.77;;
18752;SDS011;9505;50.882;5.350;2022-09-24T05:05:27;47.78;;;20.13;;
18752;SDS011;9505;50.882;5.350;2022-09-24T05:07:53;50.22;;;19.65;;
18752;SDS011;9505;50.882;5.350;2022-09-24T05:10:32;51.92;;;20.33;;
18752;SDS011;9505;50.882;5.350;2022-09-24T05:13:00;53.88;;;20.90;;
18752;SDS011;9505;50.882;5.350;2022-09-24T05:15:27;49.45;;;19.65;;
18752;SDS011;9505;50.882;5.350;2022-09-24T05:17:52;55.45;;;20.70;;
18752;SDS011;9505;50.882;5.350;2022-09-24T05:20:18;53.05;;;20.17;;
18752;SDS011;9505;50.882;5.350;2022-09-24T05:22:46;50.13;;;19.85;;
18752;SDS011;9505;50.882;5.350;2022-09-24T05:25:15;51.42;;;19.83;;
18752;SDS011;9505;50.882;5.350;2022-09-24T05:27:42;47.08;;;20.17;;
18752;SDS011;9505;50.882;5.350;2022-09-24T05:30:15;55.42;;;20.35;;
18752;SDS011;9505;50.882;5.350;2022-09-24T05:32:41;49.55;;;19.75;;
18752;SDS011;9505;50.882;5.350;2022-09-24T05:35:09;46.47;;;19.77;;
18752;SDS011;9505;50.882;5.350;2022-09-24T05:37:42;59.35;;;22.20;;
18752;SDS011;9505;50.882;5.350;2022-09-24T05:40:16;45.75;;;19.35;;
18752;SDS011;9505;50.882;5.350;2022-09-24T05:43:01;48.05;;;19.45;;
18752;SDS011;9505;50.882;5.350;2022-09-24T05:45:31;54.60;;;22.77;;
18752;SDS011;9505;50.882;5.350;2022-09-24T05:47:59;47.70;;;19.50;;
18752;SDS011;9505;50.882;5.350;2022-09-24T05:50:25;51.10;;;19.42;;
18752;SDS011;9505;50.882;5.350;2022-09-24T05:52:52;54.70;;;21.00;;
18752;SDS011;9505;50.882;5.350;2022-09-24T05:55:19;54.85;;;20.35;;
18752;SDS011;9505;50.882;5.350;2022-09-24T05:57:46;56.53;;;20.98;;
18752;SDS011;9505;50.882;5.350;2022-09-24T06:02:43;50.30;;;18.63;;
18752;SDS011;9505;50.882;5.350;2022-09-24T06:05:15;48.53;;;20.42;;
18752;SDS011;9505;50.882;5.350;2022-09-24T06:07:44;52.05;;;21.60;;
18752;SDS011;9505;50.882;5.350;2022-09-24T06:12:38;54.22;;;20.65;;
18752;SDS011;9505;50.882;5.350;2022-09-24T06:15:04;54.47;;;21.27;;
18752;SDS011;9505;50.882;5.350;2022-09-24T06:17:31;54.00;;;21.10;;
18752;SDS011;9505;50.882;5.350;2022-09-24T06:19:57;57.78;;;22.00;;
18752;SDS011;9505;50.882;5.350;2022-09-24T06:22:23;51.40;;;20.30;;
18752;SDS011;9505;50.882;5.350;2022-09-24T06:24:50;54.65;;;21.48;;
18752;SDS011;9505;50.882;5.350;2022-09-24T06:29:44;59.30;;;23.83;;
18752;SDS011;9505;50.882;5.350;2022-09-24T06:32:10;58.38;;;21.10;;
18752;SDS011;9505;50.882;5.350;2022-09-24T06:34:36;62.42;;;22.98;;
18752;SDS011;9505;50.882;5.350;2022-09-24T06:37:01;60.63;;;22.50;;
18752;SDS011;9505;50.882;5.350;2022-09-24T06:39:28;69.25;;;26.75;;
18752;SDS011;9505;50.882;5.350;2022-09-24T06:41:53;61.35;;;22.73;;
18752;SDS011;9505;50.882;5.350;2022-09-24T06:44:20;69.72;;;22.83;;
18752;SDS011;9505;50.882;5.350;2022-09-24T06:46:46;68.75;;;24.98;;
18752;SDS011;9505;50.882;5.350;2022-09-24T06:49:12;68.25;;;23.08;;
18752;SDS011;9505;50.882;5.350;2022-09-24T06:51:37;69.60;;;22.92;;
18752;SDS011;9505;50.882;5.350;2022-09-24T06:54:03;57.13;;;22.50;;
18752;SDS011;9505;50.882;5.350;2022-09-24T06:56:29;66.90;;;23.90;;
18752;SDS011;9505;50.882;5.350;2022-09-24T06:58:55;59.42;;;20.85;;
18752;SDS011;9505;50.882;5.350;2022-09-24T07:01:20;65.47;;;24.00;;
18752;SDS011;9505;50.882;5.350;2022-09-24T07:03:46;58.40;;;22.33;;
18752;SDS011;9505;50.882;5.350;2022-09-24T07:06:12;57.15;;;21.38;;
18752;SDS011;9505;50.882;5.350;2022-09-24T07:08:38;62.83;;;24.52;;
18752;SDS011;9505;50.882;5.350;2022-09-24T07:11:03;74.68;;;24.75;;
18752;SDS011;9505;50.882;5.350;2022-09-24T07:13:29;62.55;;;21.20;;
18752;SDS011;9505;50.882;5.350;2022-09-24T07:15:55;64.88;;;23.30;;
18752;SDS011;9505;50.882;5.350;2022-09-24T07:18:20;66.10;;;21.35;;
18752;SDS011;9505;50.882;5.350;2022-09-24T07:20:50;62.90;;;21.05;;
18752;SDS011;9505;50.882;5.350;2022-09-24T07:23:19;68.75;;;22.55;;
18752;SDS011;9505;50.882;5.350;2022-09-24T07:25:46;64.57;;;21.55;;
18752;SDS011;9505;50.882;5.350;2022-09-24T07:28:13;57.10;;;20.27;;
18752;SDS011;9505;50.882;5.350;2022-09-24T07:30:41;54.88;;;19.15;;
18752;SDS011;9505;50.882;5.350;2022-09-24T07:33:07;61.40;;;20.23;;
18752;SDS011;9505;50.882;5.350;2022-09-24T07:35:33;65.13;;;22.08;;
18752;SDS011;9505;50.882;5.350;2022-09-24T07:38:02;69.47;;;22.40;;
18752;SDS011;9505;50.882;5.350;2022-09-24T07:40:29;66.72;;;20.27;;
18752;SDS011;9505;50.882;5.350;2022-09-24T07:42:56;59.00;;;20.23;;
18752;SDS011;9505;50.882;5.350;2022-09-24T07:45:22;69.50;;;20.50;;
18752;SDS011;9505;50.882;5.350;2022-09-24T07:48:00;65.25;;;21.08;;
18752;SDS011;9505;50.882;5.350;2022-09-24T07:50:28;60.88;;;19.65;;
18752;SDS011;9505;50.882;5.350;2022-09-24T07:52:55;50.63;;;19.70;;
18752;SDS011;9505;50.882;5.350;2022-09-24T07:55:21;52.90;;;19.63;;
18752;SDS011;9505;50.882;5.350;2022-09-24T07:57:48;45.80;;;18.70;;
18752;SDS011;9505;50.882;5.350;2022-09-24T08:00:16;47.47;;;18.08;;
18752;SDS011;9505;50.882;5.350;2022-09-24T08:02:43;42.00;;;18.17;;
18752;SDS011;9505;50.882;5.350;2022-09-24T08:05:09;48.38;;;19.00;;
18752;SDS011;9505;50.882;5.350;2022-09-24T08:07:35;49.63;;;17.92;;
18752;SDS011;9505;50.882;5.350;2022-09-24T08:10:01;51.80;;;18.98;;
18752;SDS011;9505;50.882;5.350;2022-09-24T08:12:27;54.08;;;18.42;;
18752;SDS011;9505;50.882;5.350;2022-09-24T08:14:53;47.53;;;18.95;;
18752;SDS011;9505;50.882;5.350;2022-09-24T08:17:19;47.20;;;17.00;;
18752;SDS011;9505;50.882;5.350;2022-09-24T08:19:45;44.53;;;17.08;;
18752;SDS011;9505;50.882;5.350;2022-09-24T08:22:11;50.85;;;17.60;;
18752;SDS011;9505;50.882;5.350;2022-09-24T08:24:38;46.70;;;17.85;;
18752;SDS011;9505;50.882;5.350;2022-09-24T08:27:05;56.15;;;19.08;;
18752;SDS011;9505;50.882;5.350;2022-09-24T08:29:31;47.15;;;19.30;;
18752;SDS011;9505;50.882;5.350;2022-09-24T08:31:57;50.35;;;18.65;;
18752;SDS011;9505;50.882;5.350;2022-09-24T08:34:23;39.03;;;16.27;;
18752;SDS011;9505;50.882;5.350;2022-09-24T08:36:49;49.08;;;17.38;;
18752;SDS011;9505;50.882;5.350;2022-09-24T08:39:14;40.72;;;16.35;;
18752;SDS011;9505;50.882;5.350;2022-09-24T08:47:36;44.85;;;16.80;;
18752;SDS011;9505;50.882;5.350;2022-09-24T08:55:09;35.42;;;13.73;;
18752;SDS011;9505;50.882;5.350;2022-09-24T09:00:39;38.05;;;12.50;;
18752;SDS011;9505;50.882;5.350;2022-09-24T09:09:10;28.35;;;10.95;;
18752;SDS011;9505;50.882;5.350;2022-09-24T09:11:40;29.73;;;10.35;;
18752;SDS011;9505;50.882;5.350;2022-09-24T09:14:12;30.85;;;10.48;;
18752;SDS011;9505;50.882;5.350;2022-09-24T09:19:17;34.30;;;12.07;;
18752;SDS011;9505;50.882;5.350;2022-09-24T09:21:47;31.88;;;11.55;;
18752;SDS011;9505;50.882;5.350;2022-09-24T09:24:19;31.83;;;11.65;;
18752;SDS011;9505;50.882;5.350;2022-09-24T09:26:53;33.20;;;10.85;;
18752;SDS011;9505;50.882;5.350;2022-09-24T09:29:23;26.83;;;9.57;;
18752;SDS011;9505;50.882;5.350;2022-09-24T09:44:49;23.98;;;9.52;;
18752;SDS011;9505;50.882;5.350;2022-09-24T09:50:35;24.00;;;9.23;;
18752;SDS011;9505;50.882;5.350;2022-09-24T09:53:21;21.50;;;8.82;;
18752;SDS011;9505;50.882;5.350;2022-09-24T09:55:55;24.20;;;9.00;;
18752;SDS011;9505;50.882;5.350;2022-09-24T09:58:23;25.70;;;9.38;;
18752;SDS011;9505;50.882;5.350;2022-09-24T10:00:49;22.45;;;8.80;;
18752;SDS011;9505;50.882;5.350;2022-09-24T10:05:57;22.25;;;8.48;;
18752;SDS011;9505;50.882;5.350;2022-09-24T10:08:25;26.77;;;9.05;;
18752;SDS011;9505;50.882;5.350;2022-09-24T10:10:54;26.75;;;8.75;;
18752;SDS011;9505;50.882;5.350;2022-09-24T10:13:22;24.15;;;8.18;;
18752;SDS011;9505;50.882;5.350;2022-09-24T10:15:51;26.70;;;8.10;;
18752;SDS011;9505;50.882;5.350;2022-09-24T10:18:32;19.90;;;7.95;;
18752;SDS011;9505;50.882;5.350;2022-09-24T10:21:04;28.13;;;9.70;;
18752;SDS011;9505;50.882;5.350;2022-09-24T10:23:43;21.67;;;8.68;;
18752;SDS011;9505;50.882;5.350;2022-09-24T10:26:14;19.95;;;7.10;;
18752;SDS011;9505;50.882;5.350;2022-09-24T10:28:40;22.52;;;8.32;;
18752;SDS011;9505;50.882;5.350;2022-09-24T10:31:30;20.85;;;7.50;;
18752;SDS011;9505;50.882;5.350;2022-09-24T10:33:59;18.13;;;7.53;;
18752;SDS011;9505;50.882;5.350;2022-09-24T10:36:29;24.33;;;7.82;;
18752;SDS011;9505;50.882;5.350;2022-09-24T10:41:44;21.05;;;6.53;;
18752;SDS011;9505;50.882;5.350;2022-09-24T10:44:14;22.60;;;7.10;;
18752;SDS011;9505;50.882;5.350;2022-09-24T11:00:19;15.02;;;5.88;;
18752;SDS011;9505;50.882;5.350;2022-09-24T11:05:29;22.33;;;7.70;;
18752;SDS011;9505;50.882;5.350;2022-09-24T11:13:29;18.77;;;6.32;;
18752;SDS011;9505;50.882;5.350;2022-09-24T11:23:51;21.77;;;7.75;;
18752;SDS011;9505;50.882;5.350;2022-09-24T11:26:28;23.17;;;7.60;;
18752;SDS011;9505;50.882;5.350;2022-09-24T11:29:13;18.85;;;6.93;;
18752;SDS011;9505;50.882;5.350;2022-09-24T11:42:30;22.63;;;7.60;;
18752;SDS011;9505;50.882;5.350;2022-09-24T11:45:13;17.95;;;6.13;;
18752;SDS011;9505;50.882;5.350;2022-09-24T11:53:38;17.77;;;5.97;;
18752;SDS011;9505;50.882;5.350;2022-09-24T11:56:13;15.95;;;5.43;;
18752;SDS011;9505;50.882;5.350;2022-09-24T12:01:19;15.20;;;5.53;;
18752;SDS011;9505;50.882;5.350;2022-09-24T12:06:32;15.98;;;5.07;;
18752;SDS011;9505;50.882;5.350;2022-09-24T12:09:32;22.83;;;6.28;;
18752;SDS011;9505;50.882;5.350;2022-09-24T12:12:38;19.42;;;6.13;;
18752;SDS011;9505;50.882;5.350;2022-09-24T12:15:12;17.13;;;5.63;;
18752;SDS011;9505;50.882;5.350;2022-09-24T12:17:45;15.13;;;5.78;;
18752;SDS011;9505;50.882;5.350;2022-09-24T12:20:20;21.25;;;6.10;;
18752;SDS011;9505;50.882;5.350;2022-09-24T12:23:13;17.42;;;6.05;;
18752;SDS011;9505;50.882;5.350;2022-09-24T12:25:45;28.98;;;7.20;;
18752;SDS011;9505;50.882;5.350;2022-09-24T12:28:14;21.60;;;6.90;;
18752;SDS011;9505;50.882;5.350;2022-09-24T12:31:03;19.67;;;6.53;;
18752;SDS011;9505;50.882;5.350;2022-09-24T12:34:14;16.38;;;5.78;;
18752;SDS011;9505;50.882;5.350;2022-09-24T12:36:54;19.80;;;6.65;;
18752;SDS011;9505;50.882;5.350;2022-09-24T12:39:32;31.77;;;9.23;;
18752;SDS011;9505;50.882;5.350;2022-09-24T12:42:07;16.77;;;6.80;;
18752;SDS011;9505;50.882;5.350;2022-09-24T12:44:40;18.00;;;6.75;;
18752;SDS011;9505;50.882;5.350;2022-09-24T12:47:15;24.35;;;7.13;;
18752;SDS011;9505;50.882;5.350;2022-09-24T12:49:48;38.35;;;9.40;;
18752;SDS011;9505;50.882;5.350;2022-09-24T12:55:04;24.45;;;7.82;;
18752;SDS011;9505;50.882;5.350;2022-09-24T12:57:42;20.08;;;7.72;;
18752;SDS011;9505;50.882;5.350;2022-09-24T13:00:41;26.33;;;8.48;;
18752;SDS011;9505;50.882;5.350;2022-09-24T13:05:58;19.08;;;7.30;;
18752;SDS011;9505;50.882;5.350;2022-09-24T13:08:25;25.70;;;7.80;;
18752;SDS011;9505;50.882;5.350;2022-09-24T13:11:04;21.77;;;7.60;;
18752;SDS011;9505;50.882;5.350;2022-09-24T13:14:17;28.40;;;8.20;;
18752;SDS011;9505;50.882;5.350;2022-09-24T13:16:39;31.10;;;8.57;;
18752;SDS011;9505;50.882;5.350;2022-09-24T13:22:00;27.05;;;8.05;;
18752;SDS011;9505;50.882;5.350;2022-09-24T13:24:44;21.05;;;7.38;;
18752;SDS011;9505;50.882;5.350;2022-09-24T13:27:19;24.63;;;7.25;;
18752;SDS011;9505;50.882;5.350;2022-09-24T13:29:52;19.67;;;7.38;;
18752;SDS011;9505;50.882;5.350;2022-09-24T13:32:30;19.98;;;6.38;;
18752;SDS011;9505;50.882;5.350;2022-09-24T13:35:05;17.17;;;6.65;;
18752;SDS011;9505;50.882;5.350;2022-09-24T13:37:48;26.40;;;8.00;;
18752;SDS011;9505;50.882;5.350;2022-09-24T13:40:20;18.95;;;7.38;;
18752;SDS011;9505;50.882;5.350;2022-09-24T13:42:50;25.92;;;7.60;;
18752;SDS011;9505;50.882;5.350;2022-09-24T13:45:29;17.73;;;6.63;;
18752;SDS011;9505;50.882;5.350;2022-09-24T13:50:39;20.65;;;6.65;;
18752;SDS011;9505;50.882;5.350;2022-09-24T13:55:51;24.65;;;7.45;;
18752;SDS011;9505;50.882;5.350;2022-09-24T13:58:32;68.55;;;12.50;;
18752;SDS011;9505;50.882;5.350;2022-09-24T14:01:09;16.48;;;6.25;;
18752;SDS011;9505;50.882;5.350;2022-09-24T14:04:00;41.92;;;9.77;;
18752;SDS011;9505;50.882;5.350;2022-09-24T14:06:42;47.83;;;10.77;;
18752;SDS011;9505;50.882;5.350;2022-09-24T14:09:16;29.38;;;7.55;;
18752;SDS011;9505;50.882;5.350;2022-09-24T14:11:59;24.25;;;7.60;;
18752;SDS011;9505;50.882;5.350;2022-09-24T14:14:27;20.08;;;6.82;;
18752;SDS011;9505;50.882;5.350;2022-09-24T14:17:15;41.33;;;9.43;;
18752;SDS011;9505;50.882;5.350;2022-09-24T14:19:40;23.48;;;6.82;;
18752;SDS011;9505;50.882;5.350;2022-09-24T14:22:49;19.70;;;7.20;;
18752;SDS011;9505;50.882;5.350;2022-09-24T14:25:07;36.15;;;9.38;;
18752;SDS011;9505;50.882;5.350;2022-09-24T14:27:35;51.65;;;11.02;;
18752;SDS011;9505;50.882;5.350;2022-09-24T14:30:06;45.38;;;10.45;;
18752;SDS011;9505;50.882;5.350;2022-09-24T14:32:40;43.80;;;10.45;;
18752;SDS011;9505;50.882;5.350;2022-09-24T14:37:52;41.65;;;10.75;;
18752;SDS011;9505;50.882;5.350;2022-09-24T14:40:22;36.22;;;10.10;;
18752;SDS011;9505;50.882;5.350;2022-09-24T14:42:54;21.95;;;8.65;;
18752;SDS011;9505;50.882;5.350;2022-09-24T14:45:27;21.63;;;8.35;;
18752;SDS011;9505;50.882;5.350;2022-09-24T14:48:02;23.77;;;7.50;;
18752;SDS011;9505;50.882;5.350;2022-09-24T14:55:51;39.40;;;9.43;;
18752;SDS011;9505;50.882;5.350;2022-09-24T14:58:50;15.32;;;5.20;;
18752;SDS011;9505;50.882;5.350;2022-09-24T15:01:12;42.42;;;8.57;;
18752;SDS011;9505;50.882;5.350;2022-09-24T15:03:41;44.95;;;8.20;;
18752;SDS011;9505;50.882;5.350;2022-09-24T15:06:19;36.92;;;7.40;;
18752;SDS011;9505;50.882;5.350;2022-09-24T15:08:51;43.67;;;8.52;;
18752;SDS011;9505;50.882;5.350;2022-09-24T15:11:17;21.42;;;5.82;;
18752;SDS011;9505;50.882;5.350;2022-09-24T15:13:44;12.88;;;4.43;;
18752;SDS011;9505;50.882;5.350;2022-09-24T15:18:57;23.63;;;6.00;;
18752;SDS011;9505;50.882;5.350;2022-09-24T15:21:34;20.27;;;5.50;;
18752;SDS011;9505;50.882;5.350;2022-09-24T15:24:00;11.73;;;4.57;;
18752;SDS011;9505;50.882;5.350;2022-09-24T15:26:27;35.42;;;7.72;;
18752;SDS011;9505;50.882;5.350;2022-09-24T15:28:58;40.08;;;7.93;;
18752;SDS011;9505;50.882;5.350;2022-09-24T15:31:24;26.65;;;6.85;;
18752;SDS011;9505;50.882;5.350;2022-09-24T15:33:50;19.17;;;5.38;;
18752;SDS011;9505;50.882;5.350;2022-09-24T15:36:16;42.00;;;8.98;;
18752;SDS011;9505;50.882;5.350;2022-09-24T15:38:45;38.00;;;9.02;;
18752;SDS011;9505;50.882;5.350;2022-09-24T15:41:12;26.33;;;6.57;;
18752;SDS011;9505;50.882;5.350;2022-09-24T15:43:37;17.02;;;6.40;;
18752;SDS011;9505;50.882;5.350;2022-09-24T15:46:03;17.80;;;5.65;;
18752;SDS011;9505;50.882;5.350;2022-09-24T15:48:29;19.15;;;6.13;;
18752;SDS011;9505;50.882;5.350;2022-09-24T15:50:54;22.67;;;6.55;;
18752;SDS011;9505;50.882;5.350;2022-09-24T15:53:20;14.43;;;5.75;;
18752;SDS011;9505;50.882;5.350;2022-09-24T15:55:55;18.48;;;6.18;;
18752;SDS011;9505;50.882;5.350;2022-09-24T15:58:23;16.88;;;6.15;;
18752;SDS011;9505;50.882;5.350;2022-09-24T16:00:49;17.88;;;7.05;;
18752;SDS011;9505;50.882;5.350;2022-09-24T16:03:16;15.02;;;6.45;;
18752;SDS011;9505;50.882;5.350;2022-09-24T16:05:45;18.27;;;6.93;;
18752;SDS011;9505;50.882;5.350;2022-09-24T16:08:11;20.05;;;6.75;;
18752;SDS011;9505;50.882;5.350;2022-09-24T16:10:37;21.85;;;7.43;;
18752;SDS011;9505;50.882;5.350;2022-09-24T16:13:03;19.33;;;7.15;;
18752;SDS011;9505;50.882;5.350;2022-09-24T16:15:29;16.77;;;6.13;;
18752;SDS011;9505;50.882;5.350;2022-09-24T16:17:55;18.35;;;6.35;;
18752;SDS011;9505;50.882;5.350;2022-09-24T16:20:20;18.90;;;6.00;;
18752;SDS011;9505;50.882;5.350;2022-09-24T16:22:46;16.02;;;6.10;;
18752;SDS011;9505;50.882;5.350;2022-09-24T16:25:12;16.70;;;6.20;;
18752;SDS011;9505;50.882;5.350;2022-09-24T16:27:37;111.00;;;17.55;;
18752;SDS011;9505;50.882;5.350;2022-09-24T16:30:05;18.77;;;6.32;;
18752;SDS011;9505;50.882;5.350;2022-09-24T16:32:31;15.77;;;5.70;;
18752;SDS011;9505;50.882;5.350;2022-09-24T16:34:57;20.67;;;5.75;;
18752;SDS011;9505;50.882;5.350;2022-09-24T16:37:23;19.95;;;6.47;;
18752;SDS011;9505;50.882;5.350;2022-09-24T16:39:49;16.23;;;5.88;;
18752;SDS011;9505;50.882;5.350;2022-09-24T16:42:14;12.25;;;5.72;;
18752;SDS011;9505;50.882;5.350;2022-09-24T16:44:40;22.40;;;6.47;;
18752;SDS011;9505;50.882;5.350;2022-09-24T16:47:06;13.05;;;5.05;;
18752;SDS011;9505;50.882;5.350;2022-09-24T16:49:31;16.33;;;6.15;;
18752;SDS011;9505;50.882;5.350;2022-09-24T16:51:57;15.40;;;5.40;;
18752;SDS011;9505;50.882;5.350;2022-09-24T16:54:22;15.20;;;5.60;;
18752;SDS011;9505;50.882;5.350;2022-09-24T16:56:49;24.65;;;6.78;;
18752;SDS011;9505;50.882;5.350;2022-09-24T16:59:16;13.95;;;5.75;;
18752;SDS011;9505;50.882;5.350;2022-09-24T17:01:42;22.42;;;6.75;;
18752;SDS011;9505;50.882;5.350;2022-09-24T17:04:08;20.92;;;6.53;;
18752;SDS011;9505;50.882;5.350;2022-09-24T17:06:34;15.93;;;5.78;;
18752;SDS011;9505;50.882;5.350;2022-09-24T17:09:00;24.05;;;5.95;;
18752;SDS011;9505;50.882;5.350;2022-09-24T17:11:44;22.35;;;7.05;;
18752;SDS011;9505;50.882;5.350;2022-09-24T17:14:14;19.83;;;6.93;;
18752;SDS011;9505;50.882;5.350;2022-09-24T17:16:42;17.67;;;6.15;;
18752;SDS011;9505;50.882;5.350;2022-09-24T17:19:08;17.85;;;6.28;;
18752;SDS011;9505;50.882;5.350;2022-09-24T17:21:35;19.15;;;6.30;;
18752;SDS011;9505;50.882;5.350;2022-09-24T17:24:02;17.35;;;6.25;;
18752;SDS011;9505;50.882;5.350;2022-09-24T17:26:28;15.98;;;5.95;;
18752;SDS011;9505;50.882;5.350;2022-09-24T17:28:53;18.40;;;6.25;;